createdAt,value
2022-11-06T00:00:28.013Z,5.20
2022-11-06T00:02:56.915Z,5.20
2022-11-06T00:05:55.637Z,5.20
2022-11-06T00:08:29.458Z,5.10
2022-11-06T00:10:56.104Z,5.10
2022-11-06T00:13:22.733Z,5.00
2022-11-06T00:15:49.493Z,5.00
2022-11-06T00:18:16.155Z,4.90
2022-11-06T00:20:42.886Z,4.90
2022-11-06T00:23:09.592Z,4.90
2022-11-06T00:25:39.534Z,4.80
2022-11-06T00:28:06.274Z,4.80
2022-11-06T00:30:32.840Z,4.80
2022-11-06T00:32:59.578Z,4.70
2022-11-06T00:35:26.194Z,4.70
2022-11-06T00:37:52.815Z,4.70
2022-11-06T00:40:19.394Z,4.70
2022-11-06T00:42:45.958Z,4.60
2022-11-06T00:45:12.665Z,4.60
2022-11-06T00:47:39.246Z,4.60
2022-11-06T00:50:06.139Z,4.60
2022-11-06T00:52:32.774Z,4.60
2022-11-06T00:54:59.336Z,4.60
2022-11-06T00:57:26.054Z,4.60
2022-11-06T00:59:52.631Z,4.60
2022-11-06T01:02:20.549Z,4.60
2022-11-06T01:04:47.183Z,4.60
2022-11-06T01:07:13.745Z,4.60
2022-11-06T01:09:40.507Z,4.50
2022-11-06T01:12:14.789Z,4.60
2022-11-06T01:14:42.142Z,4.50
2022-11-06T01:17:08.826Z,4.50
2022-11-06T01:19:35.705Z,4.50
2022-11-06T01:22:02.509Z,4.50
2022-11-06T01:24:29.592Z,4.40
2022-11-06T01:29:43.550Z,4.40
2022-11-06T01:32:10.397Z,4.30
2022-11-06T01:34:37.169Z,4.30
2022-11-06T01:37:04.043Z,4.30
2022-11-06T01:39:30.783Z,4.30
2022-11-06T01:41:57.399Z,4.30
2022-11-06T01:44:33.272Z,4.30
2022-11-06T01:49:28.819Z,4.20
2022-11-06T01:54:23.715Z,4.20
2022-11-06T01:56:51.356Z,4.10
2022-11-06T01:59:19.517Z,3.90
2022-11-06T02:01:46.264Z,4.00
2022-11-06T02:04:18.220Z,3.90
2022-11-06T02:06:45.795Z,3.90
2022-11-06T02:09:12.860Z,3.90
2022-11-06T02:11:41.668Z,3.90
2022-11-06T02:14:17.918Z,3.80
2022-11-06T02:16:50.705Z,3.80
2022-11-06T02:19:17.326Z,3.70
2022-11-06T02:21:59.863Z,3.70
2022-11-06T02:24:45.227Z,3.70
2022-11-06T02:27:24.644Z,3.60
2022-11-06T02:29:56.503Z,3.60
2022-11-06T02:32:27.150Z,3.50
2022-11-06T02:34:55.337Z,5.30
2022-11-06T02:37:26.820Z,3.50
2022-11-06T02:39:55.435Z,5.20
2022-11-06T02:42:23.811Z,3.50
2022-11-06T02:44:51.840Z,3.30
2022-11-06T02:49:48.432Z,3.40
2022-11-06T02:52:19.179Z,3.40
2022-11-06T02:55:17.946Z,3.40
2022-11-06T02:57:47.163Z,3.30
2022-11-06T03:00:15.641Z,4.50
2022-11-06T03:02:42.400Z,3.30
2022-11-06T03:05:13.333Z,3.20
2022-11-06T03:07:43.739Z,3.20
2022-11-06T03:10:10.969Z,3.20
2022-11-06T03:12:43.359Z,3.10
2022-11-06T03:15:15.504Z,3.10
2022-11-06T03:18:01.060Z,3.10
2022-11-06T03:20:30.630Z,3.10
2022-11-06T03:23:00.303Z,3.10
2022-11-06T03:25:29.758Z,3.10
2022-11-06T03:28:01.863Z,3.10
2022-11-06T03:30:28.546Z,3.00
2022-11-06T03:33:05.436Z,3.00
2022-11-06T03:35:35.090Z,3.00
2022-11-06T03:38:12.876Z,3.00
2022-11-06T03:40:42.662Z,3.00
2022-11-06T03:43:12.737Z,3.00
2022-11-06T03:45:40.549Z,3.00
2022-11-06T03:48:19.985Z,3.00
2022-11-06T03:50:58.759Z,3.00
2022-11-06T03:53:32.078Z,2.90
2022-11-06T03:56:02.387Z,3.00
2022-11-06T03:58:32.762Z,2.90
2022-11-06T04:01:02.237Z,2.90
2022-11-06T04:03:40.727Z,2.90
2022-11-06T04:06:17.253Z,2.90
2022-11-06T04:09:03.397Z,2.80
2022-11-06T04:11:49.990Z,2.80
2022-11-06T04:14:18.085Z,2.80
2022-11-06T04:16:48.949Z,2.80
2022-11-06T04:19:17.219Z,2.80
2022-11-06T04:21:52.991Z,2.70
2022-11-06T04:24:44.864Z,2.70
2022-11-06T04:27:16.677Z,2.70
2022-11-06T04:29:46.409Z,2.70
2022-11-06T04:32:18.042Z,2.70
2022-11-06T04:34:44.591Z,2.70
2022-11-06T04:37:17.867Z,2.70
2022-11-06T04:39:50.152Z,2.70
2022-11-06T04:42:21.036Z,2.60
2022-11-06T04:44:50.120Z,2.60
2022-11-06T04:47:18.553Z,2.50
2022-11-06T04:49:45.777Z,2.50
2022-11-06T04:52:18.782Z,2.50
2022-11-06T04:54:46.370Z,2.50
2022-11-06T04:57:13.027Z,2.50
2022-11-06T04:59:39.603Z,2.50
2022-11-06T05:02:06.386Z,2.40
2022-11-06T05:04:33.667Z,2.40
2022-11-06T05:07:00.493Z,2.30
2022-11-06T05:09:27.084Z,2.30
2022-11-06T05:11:53.797Z,2.30
2022-11-06T05:14:20.450Z,2.30
2022-11-06T05:16:47.147Z,2.20
2022-11-06T05:19:13.724Z,2.20
2022-11-06T05:21:58.855Z,2.20
2022-11-06T05:24:25.451Z,2.20
2022-11-06T05:26:57.823Z,2.20
2022-11-06T05:29:25.934Z,2.20
2022-11-06T05:31:52.551Z,2.20
2022-11-06T05:34:19.108Z,2.10
2022-11-06T05:36:45.855Z,2.20
2022-11-06T05:39:12.492Z,2.10
2022-11-06T05:41:39.252Z,2.10
2022-11-06T05:44:05.914Z,2.10
2022-11-06T05:46:49.595Z,2.20
2022-11-06T05:49:17.386Z,2.20
2022-11-06T05:51:44.282Z,2.10
2022-11-06T05:54:10.848Z,2.10
2022-11-06T05:56:37.419Z,2.10
2022-11-06T05:59:04.147Z,2.10
2022-11-06T06:01:30.784Z,2.10
2022-11-06T06:03:57.452Z,2.00
2022-11-06T06:06:24.045Z,2.00
2022-11-06T06:08:50.613Z,2.00
2022-11-06T06:11:17.197Z,2.00
2022-11-06T06:13:44.246Z,2.00
2022-11-06T06:16:10.996Z,2.00
2022-11-06T06:18:37.723Z,2.20
2022-11-06T06:21:04.454Z,2.10
2022-11-06T06:23:31.036Z,2.40
2022-11-06T06:25:57.697Z,2.10
2022-11-06T06:28:24.289Z,2.20
2022-11-06T06:30:50.888Z,2.30
2022-11-06T06:33:17.524Z,3.60
2022-11-06T06:35:44.120Z,2.40
2022-11-06T06:38:11.088Z,2.50
2022-11-06T06:40:37.920Z,2.50
2022-11-06T06:43:04.532Z,2.70
2022-11-06T06:45:31.229Z,2.70
2022-11-06T06:48:01.985Z,2.80
2022-11-06T06:50:28.556Z,2.90
2022-11-06T06:52:56.118Z,6.90
2022-11-06T06:55:22.678Z,3.10
2022-11-06T06:57:49.249Z,3.10
2022-11-06T07:00:16.004Z,3.30
2022-11-06T07:02:42.627Z,3.30
2022-11-06T07:05:09.342Z,3.30
2022-11-06T07:07:35.933Z,3.40
2022-11-06T07:10:02.586Z,3.50
2022-11-06T07:12:29.147Z,3.60
2022-11-06T07:14:55.738Z,3.60
2022-11-06T07:17:22.398Z,3.70
2022-11-06T07:19:48.968Z,3.90
2022-11-06T07:22:15.651Z,4.10
2022-11-06T07:24:42.216Z,4.10
2022-11-06T07:27:08.816Z,4.30
2022-11-06T07:29:35.383Z,4.50
2022-11-06T07:32:02.068Z,4.70
2022-11-06T07:34:28.682Z,4.90
2022-11-06T07:36:55.415Z,5.30
2022-11-06T07:39:21.980Z,5.20
2022-11-06T07:41:48.563Z,5.40
2022-11-06T07:44:15.129Z,5.60
2022-11-06T07:46:41.808Z,5.80
2022-11-06T07:49:09.378Z,5.90
2022-11-06T07:51:36.023Z,5.80
2022-11-06T07:54:02.587Z,6.60
2022-11-06T07:56:29.161Z,6.20
2022-11-06T07:58:55.820Z,6.30
2022-11-06T08:01:22.545Z,6.50
2022-11-06T08:03:49.248Z,6.70
2022-11-06T08:06:15.840Z,6.70
2022-11-06T08:08:42.419Z,6.80
2022-11-06T08:11:09.934Z,6.90
2022-11-06T08:13:37.129Z,7.00
2022-11-06T08:16:07.527Z,8.70
2022-11-06T08:18:34.568Z,7.00
2022-11-06T08:21:01.156Z,6.90
2022-11-06T08:23:28.042Z,6.90
2022-11-06T08:25:58.543Z,7.30
2022-11-06T08:28:25.939Z,7.10
2022-11-06T08:30:53.150Z,7.20
2022-11-06T08:33:20.497Z,7.10
2022-11-06T08:35:47.396Z,7.20
2022-11-06T08:38:14.858Z,7.40
2022-11-06T08:40:41.769Z,7.50
2022-11-06T08:43:09.454Z,7.60
2022-11-06T08:45:37.404Z,7.50
2022-11-06T08:48:04.316Z,7.80
2022-11-06T08:50:31.744Z,7.50
2022-11-06T08:53:04.036Z,7.70
2022-11-06T08:55:31.113Z,8.60
2022-11-06T08:57:57.708Z,7.90
2022-11-06T09:00:24.714Z,9.50
2022-11-06T09:02:51.347Z,8.00
2022-11-06T09:05:17.941Z,8.00
2022-11-06T09:07:44.514Z,8.10
2022-11-06T09:10:11.070Z,8.20
2022-11-06T09:12:37.768Z,8.20
2022-11-06T09:15:04.550Z,8.30
2022-11-06T09:17:31.149Z,8.30
2022-11-06T09:19:57.709Z,8.40
2022-11-06T09:22:24.291Z,8.50
2022-11-06T09:25:03.306Z,8.70
2022-11-06T09:27:30.676Z,8.80
2022-11-06T09:29:57.354Z,8.90
2022-11-06T09:32:24.604Z,9.20
2022-11-06T09:34:51.523Z,9.40
2022-11-06T09:37:18.228Z,9.60
2022-11-06T09:39:44.853Z,9.90
2022-11-06T09:42:14.457Z,9.70
2022-11-06T09:44:41.056Z,9.80
2022-11-06T09:47:13.329Z,9.80
2022-11-06T09:49:47.510Z,9.70
2022-11-06T09:52:16.893Z,9.60
2022-11-06T09:54:47.353Z,9.50
2022-11-06T09:57:19.443Z,9.60
2022-11-06T09:59:46.954Z,9.70
2022-11-06T10:02:20.578Z,10.20
2022-11-06T10:04:54.483Z,9.80
2022-11-06T10:07:28.891Z,9.80
2022-11-06T10:09:55.786Z,9.90
2022-11-06T10:12:45.183Z,10.00
2022-11-06T10:15:11.731Z,10.10
2022-11-06T10:17:38.334Z,10.20
2022-11-06T10:20:11.035Z,11.20
2022-11-06T10:22:41.746Z,10.30
2022-11-06T10:25:17.379Z,10.40
2022-11-06T10:27:53.009Z,10.30
2022-11-06T10:30:19.747Z,11.60
2022-11-06T10:32:58.675Z,10.40
2022-11-06T10:35:27.786Z,10.50
2022-11-06T10:37:58.017Z,10.60
2022-11-06T10:40:26.851Z,12.00
2022-11-06T10:43:00.938Z,10.80
2022-11-06T10:45:28.687Z,10.90
2022-11-06T10:48:00.161Z,11.00
2022-11-06T10:50:32.205Z,11.00
2022-11-06T10:53:05.464Z,11.00
2022-11-06T10:55:50.847Z,11.10
2022-11-06T10:58:26.327Z,11.20
2022-11-06T11:00:54.311Z,11.40
2022-11-06T11:03:27.067Z,11.80
2022-11-06T11:05:55.209Z,12.20
2022-11-06T11:08:31.011Z,12.80
2022-11-06T11:11:05.138Z,13.60
2022-11-06T11:13:32.493Z,14.20
2022-11-06T11:15:59.222Z,15.30
2022-11-06T11:18:33.940Z,17.40
2022-11-06T11:21:06.675Z,17.00
2022-11-06T11:23:33.410Z,17.50
2022-11-06T11:26:14.918Z,18.20
2022-11-06T11:28:41.544Z,18.70
2022-11-06T11:31:08.252Z,18.90
2022-11-06T11:33:35.184Z,19.50
2022-11-06T11:36:03.288Z,20.10
2022-11-06T11:38:30.067Z,20.40
2022-11-06T11:41:07.088Z,19.70
2022-11-06T11:43:33.826Z,19.80
2022-11-06T11:46:09.596Z,20.20
2022-11-06T11:48:46.734Z,20.20
2022-11-06T11:51:21.906Z,20.60
2022-11-06T11:53:48.539Z,20.90
2022-11-06T11:56:36.246Z,21.20
2022-11-06T11:59:06.731Z,21.00
2022-11-06T12:01:35.780Z,20.80
2022-11-06T12:04:07.531Z,20.70
2022-11-06T12:06:34.138Z,20.90
2022-11-06T12:09:00.772Z,21.00
2022-11-06T12:11:29.768Z,20.70
2022-11-06T12:14:15.071Z,19.90
2022-11-06T12:16:42.301Z,19.40
2022-11-06T12:19:09.444Z,19.70
2022-11-06T12:21:38.110Z,19.70
2022-11-06T12:24:07.838Z,19.70
2022-11-06T12:26:37.346Z,19.20
2022-11-06T12:29:22.422Z,19.10
2022-11-06T12:31:58.142Z,19.30
2022-11-06T12:34:31.987Z,19.50
2022-11-06T12:37:04.765Z,19.20
2022-11-06T12:39:33.453Z,18.60
2022-11-06T12:42:02.329Z,18.30
2022-11-06T12:44:29.082Z,17.70
2022-11-06T12:46:55.714Z,17.50
2022-11-06T12:49:28.318Z,17.00
2022-11-06T12:52:07.132Z,16.70
2022-11-06T12:54:33.678Z,16.20
2022-11-06T12:57:06.575Z,16.40
2022-11-06T12:59:33.156Z,15.90
2022-11-06T13:02:03.022Z,16.00
2022-11-06T13:04:41.846Z,17.90
2022-11-06T13:07:27.622Z,16.40
2022-11-06T13:10:01.590Z,16.50
2022-11-06T13:12:28.146Z,16.60
2022-11-06T13:15:05.004Z,16.30
2022-11-06T13:17:35.252Z,16.20
2022-11-06T13:20:07.960Z,16.20
2022-11-06T13:22:42.094Z,15.80
2022-11-06T13:25:18.199Z,15.70
2022-11-06T13:30:14.472Z,15.80
2022-11-06T13:32:41.820Z,15.80
2022-11-06T13:35:17.135Z,15.80
2022-11-06T13:37:46.182Z,15.40
2022-11-06T13:40:22.623Z,15.40
2022-11-06T13:42:51.464Z,15.40
2022-11-06T13:45:18.901Z,15.50
2022-11-06T13:47:57.178Z,15.40
2022-11-06T13:50:42.282Z,15.00
2022-11-06T13:53:17.922Z,15.20
2022-11-06T13:55:57.479Z,15.40
2022-11-06T13:58:42.841Z,15.40
2022-11-06T14:01:12.595Z,15.10
2022-11-06T14:03:46.685Z,15.50
2022-11-06T14:06:16.118Z,15.40
2022-11-06T14:08:48.882Z,15.70
2022-11-06T14:11:17.597Z,15.60
2022-11-06T14:14:04.206Z,15.60
2022-11-06T14:16:34.590Z,15.40
2022-11-06T14:19:11.970Z,15.40
2022-11-06T14:21:47.872Z,15.40
2022-11-06T14:24:32.855Z,15.10
2022-11-06T14:27:03.956Z,14.90
2022-11-06T14:29:30.503Z,14.40
2022-11-06T14:32:17.408Z,15.50
2022-11-06T14:34:46.148Z,13.80
2022-11-06T14:37:18.745Z,13.50
2022-11-06T14:39:51.496Z,13.20
2022-11-06T14:42:38.345Z,13.00
2022-11-06T14:45:15.508Z,13.00
2022-11-06T14:47:56.398Z,12.40
2022-11-06T14:50:28.559Z,12.20
2022-11-06T14:53:03.447Z,12.00
2022-11-06T14:55:44.644Z,11.80
2022-11-06T14:58:11.464Z,11.60
2022-11-06T15:00:38.429Z,12.50
2022-11-06T15:03:06.666Z,11.40
2022-11-06T15:08:08.868Z,11.20
2022-11-06T15:10:44.842Z,11.10
2022-11-06T15:13:17.718Z,11.10
2022-11-06T15:15:49.291Z,10.90
2022-11-06T15:18:23.027Z,10.80
2022-11-06T15:20:51.952Z,10.70
2022-11-06T15:23:23.551Z,10.50
2022-11-06T15:25:54.960Z,10.40
2022-11-06T15:28:22.813Z,11.80
2022-11-06T15:30:56.358Z,10.20
2022-11-06T15:33:26.782Z,10.10
2022-11-06T15:35:55.686Z,10.00
2022-11-06T15:38:23.584Z,11.50
2022-11-06T15:40:51.434Z,9.80
2022-11-06T15:43:26.595Z,9.60
2022-11-06T15:46:07.619Z,9.50
2022-11-06T15:48:35.023Z,9.40
2022-11-06T15:51:01.686Z,9.30
2022-11-06T15:53:29.111Z,8.90
2022-11-06T15:56:06.829Z,9.30
2022-11-06T15:58:35.183Z,8.90
2022-11-06T16:01:03.088Z,8.90
2022-11-06T16:03:42.831Z,8.80
2022-11-06T16:06:09.568Z,8.40
2022-11-06T16:08:37.141Z,8.90
2022-11-06T16:11:08.065Z,9.10
2022-11-06T16:13:37.479Z,8.80
2022-11-06T16:16:04.224Z,8.70
2022-11-06T16:18:40.807Z,8.40
2022-11-06T16:21:11.808Z,8.40
2022-11-06T16:31:06.564Z,8.10
2022-11-06T16:48:44.992Z,7.70
2022-11-06T16:51:12.698Z,7.70
2022-11-06T16:53:46.849Z,7.60
2022-11-06T16:56:14.164Z,7.60
2022-11-06T16:58:47.059Z,7.30
2022-11-06T17:01:19.778Z,7.50
2022-11-06T17:03:49.024Z,7.50
2022-11-06T17:06:21.343Z,7.40
2022-11-06T17:11:16.828Z,7.50
2022-11-06T17:16:15.380Z,7.40
2022-11-06T17:18:42.441Z,7.40
2022-11-06T17:21:14.454Z,7.30
2022-11-06T17:23:41.080Z,7.40
2022-11-06T17:26:11.481Z,8.10
2022-11-06T17:28:38.037Z,7.30
2022-11-06T17:31:05.102Z,7.30
2022-11-06T17:35:58.727Z,7.30
2022-11-06T17:38:25.470Z,7.20
2022-11-06T17:40:52.060Z,7.20
2022-11-06T17:43:18.683Z,7.10
2022-11-06T17:45:47.900Z,7.10
2022-11-06T17:48:14.546Z,7.30
2022-11-06T17:53:27.107Z,7.40
2022-11-06T17:58:20.698Z,7.30
2022-11-06T18:00:48.017Z,7.30
2022-11-06T18:03:19.309Z,7.30
2022-11-06T18:05:46.542Z,7.30
2022-11-06T18:08:13.728Z,7.30
2022-11-06T18:10:40.754Z,7.30
2022-11-06T18:13:07.450Z,7.30
2022-11-06T18:15:34.822Z,7.20
2022-11-06T18:18:01.511Z,7.20
2022-11-06T18:20:28.268Z,7.20
2022-11-06T18:22:54.844Z,7.20
2022-11-06T18:25:21.407Z,7.20
2022-11-06T18:27:48.123Z,7.20
2022-11-06T18:30:14.784Z,7.20
2022-11-06T18:32:41.416Z,7.20
2022-11-06T18:35:08.392Z,7.20
2022-11-06T18:37:35.220Z,7.20
2022-11-06T18:40:01.886Z,7.30
2022-11-06T18:42:28.495Z,7.30
2022-11-06T18:44:55.067Z,7.30
2022-11-06T18:47:21.727Z,7.30
2022-11-06T18:49:48.361Z,7.40
2022-11-06T18:52:27.677Z,7.40
2022-11-06T18:55:01.580Z,7.40
2022-11-06T18:57:28.892Z,7.40
2022-11-06T18:59:55.487Z,7.40
2022-11-06T19:02:22.176Z,7.50
2022-11-06T19:04:49.017Z,7.50
2022-11-06T19:07:15.784Z,7.50
2022-11-06T19:09:42.525Z,7.50
2022-11-06T19:12:09.096Z,7.50
2022-11-06T19:14:35.670Z,7.50
2022-11-06T19:17:02.331Z,7.50
2022-11-06T19:19:28.926Z,7.50
2022-11-06T19:21:55.523Z,7.60
2022-11-06T19:24:22.207Z,7.40
2022-11-06T19:29:16.949Z,7.60
2022-11-06T19:31:43.542Z,7.60
2022-11-06T19:34:12.420Z,7.60
2022-11-06T19:36:39.010Z,8.80
2022-11-06T19:39:07.163Z,8.30
2022-11-06T19:41:34.168Z,7.80
2022-11-06T19:44:00.726Z,7.80
2022-11-06T19:46:34.053Z,7.80
2022-11-06T19:49:06.250Z,7.90
2022-11-06T19:51:33.508Z,7.90
2022-11-06T19:54:01.509Z,7.90
2022-11-06T19:56:28.145Z,7.90
2022-11-06T19:58:54.754Z,7.90
2022-11-06T20:01:21.684Z,7.90
2022-11-06T20:03:48.420Z,7.90
2022-11-06T20:06:15.507Z,7.90
2022-11-06T20:08:42.434Z,7.90
2022-11-06T20:11:12.304Z,8.10
2022-11-06T20:13:39.259Z,7.90
2022-11-06T20:16:06.931Z,8.70
2022-11-06T20:18:35.616Z,8.00
2022-11-06T20:21:03.585Z,8.00
2022-11-06T20:23:30.173Z,9.00
2022-11-06T20:25:56.809Z,8.20
2022-11-06T20:28:23.602Z,8.30
2022-11-06T20:30:50.350Z,8.30
2022-11-06T20:33:17.586Z,8.40
2022-11-06T20:35:44.315Z,8.50
2022-11-06T20:38:11.644Z,8.50
2022-11-06T20:40:38.367Z,9.70
2022-11-06T20:43:04.932Z,8.80
2022-11-06T20:45:37.007Z,8.90
2022-11-06T20:48:04.460Z,9.00
2022-11-06T20:50:31.079Z,9.20
2022-11-06T20:52:57.747Z,9.30
2022-11-06T20:55:24.311Z,10.90
2022-11-06T20:57:50.920Z,9.60
2022-11-06T21:00:18.588Z,10.80
2022-11-06T21:02:46.381Z,9.80
2022-11-06T21:05:14.907Z,10.90
2022-11-06T21:07:41.650Z,10.00
2022-11-06T21:10:09.979Z,10.00
2022-11-06T21:12:36.639Z,10.00
2022-11-06T21:15:03.399Z,10.10
2022-11-06T21:17:30.118Z,10.20
2022-11-06T21:19:56.686Z,10.20
2022-11-06T21:22:23.272Z,10.30
2022-11-06T21:24:49.851Z,12.50
2022-11-06T21:27:16.466Z,10.60
2022-11-06T21:29:43.030Z,10.50
2022-11-06T21:32:09.610Z,11.80
2022-11-06T21:34:36.307Z,10.90
2022-11-06T21:37:03.286Z,11.30
2022-11-06T21:39:34.798Z,11.60
2022-11-06T21:42:02.776Z,11.70
2022-11-06T21:44:29.351Z,10.80
2022-11-06T21:46:56.011Z,12.00
2022-11-06T21:49:22.637Z,10.90
2022-11-06T21:51:49.265Z,12.50
2022-11-06T21:54:34.563Z,11.60
2022-11-06T21:57:01.256Z,12.60
2022-11-06T21:59:28.619Z,11.50
2022-11-06T22:01:55.417Z,11.50
2022-11-06T22:04:22.157Z,12.00
2022-11-06T22:06:48.870Z,11.50
2022-11-06T22:09:18.378Z,11.50
2022-11-06T22:11:47.321Z,11.50
2022-11-06T22:14:15.258Z,11.50
2022-11-06T22:16:43.016Z,12.50
2022-11-06T22:19:09.851Z,11.60
2022-11-06T22:21:37.321Z,13.30
2022-11-06T22:24:04.086Z,11.70
2022-11-06T22:26:32.421Z,11.50
2022-11-06T22:29:00.015Z,11.50
2022-11-06T22:31:27.242Z,11.50
2022-11-06T22:33:54.285Z,11.50
2022-11-06T22:36:21.546Z,11.50
2022-11-06T22:38:48.504Z,12.20
2022-11-06T22:41:16.868Z,11.50
2022-11-06T22:43:44.538Z,11.50
2022-11-06T22:46:12.920Z,11.50
2022-11-06T22:48:39.718Z,11.50
2022-11-06T22:51:17.273Z,11.40
2022-11-06T22:53:43.894Z,11.50
2022-11-06T22:56:12.565Z,11.40
2022-11-06T22:58:40.104Z,11.40
2022-11-06T23:01:07.309Z,11.50
2022-11-06T23:03:33.892Z,13.00
2022-11-06T23:06:03.158Z,11.50
2022-11-06T23:08:29.739Z,11.60
2022-11-06T23:10:56.866Z,11.50
2022-11-06T23:13:23.839Z,11.50
2022-11-06T23:15:51.109Z,12.10
2022-11-06T23:18:17.763Z,12.60
2022-11-06T23:20:44.367Z,11.60
2022-11-06T23:23:11.098Z,12.60
2022-11-06T23:25:37.937Z,11.70
2022-11-06T23:28:04.936Z,11.50
2022-11-06T23:30:31.668Z,11.50
2022-11-06T23:32:58.309Z,11.50
2022-11-06T23:35:29.390Z,11.90
2022-11-06T23:37:59.131Z,11.40
2022-11-06T23:40:25.774Z,12.50
2022-11-06T23:42:54.633Z,12.00
2022-11-06T23:45:47.489Z,12.00
2022-11-06T23:48:15.223Z,11.60
2022-11-06T23:50:46.895Z,11.70
2022-11-06T23:53:14.749Z,11.60
2022-11-06T23:55:41.804Z,11.60
2022-11-06T23:58:08.751Z,11.60
